sensor_id;sensor_type;location;lat;lon;timestamp;pressure;altitude;pressure_sealevel;temperature;humidity
81802;BME280;71199;52.490;5.448;2023-11-21T00:01:52;101147.09;;;7.20;100.00
81802;BME280;71199;52.490;5.448;2023-11-21T00:04:18;101137.59;;;7.24;100.00
81802;BME280;71199;52.490;5.448;2023-11-21T00:06:43;101137.44;;;7.26;100.00
81802;BME280;71199;52.490;5.448;2023-11-21T00:09:11;101145.06;;;7.32;100.00
81802;BME280;71199;52.490;5.448;2023-11-21T00:11:38;101154.84;;;7.35;100.00
81802;BME280;71199;52.490;5.448;2023-11-21T00:14:03;101154.56;;;7.38;100.00
81802;BME280;71199;52.490;5.448;2023-11-21T00:16:29;101159.75;;;7.41;100.00
81802;BME280;71199;52.490;5.448;2023-11-21T00:18:54;101151.25;;;7.44;100.00
81802;BME280;71199;52.490;5.448;2023-11-21T00:21:20;101153.84;;;7.45;100.00
81802;BME280;71199;52.490;5.448;2023-11-21T00:23:45;101153.69;;;7.47;100.00
81802;BME280;71199;52.490;5.448;2023-11-21T00:26:10;101145.94;;;7.52;100.00
81802;BME280;71199;52.490;5.448;2023-11-21T00:28:36;101150.38;;;7.53;100.00
81802;BME280;71199;52.490;5.448;2023-11-21T00:31:01;101145.34;;;7.58;100.00
81802;BME280;71199;52.490;5.448;2023-11-21T00:33:26;101159.88;;;7.59;100.00
81802;BME280;71199;52.490;5.448;2023-11-21T00:35:52;101150.09;;;7.56;100.00
81802;BME280;71199;52.490;5.448;2023-11-21T00:38:17;101165.47;;;7.57;100.00
81802;BME280;71199;52.490;5.448;2023-11-21T00:40:45;101155.69;;;7.55;100.00
81802;BME280;71199;52.490;5.448;2023-11-21T00:43:10;101152.53;;;7.59;100.00
81802;BME280;71199;52.490;5.448;2023-11-21T00:45:36;101153.41;;;7.60;100.00
81802;BME280;71199;52.490;5.448;2023-11-21T00:48:02;101174.41;;;7.59;100.00
81802;BME280;71199;52.490;5.448;2023-11-21T00:50:28;101166.91;;;7.61;100.00
81802;BME280;71199;52.490;5.448;2023-11-21T00:52:54;101174.13;;;7.62;100.00
81802;BME280;71199;52.490;5.448;2023-11-21T00:55:19;101167.34;;;7.66;100.00
81802;BME280;71199;52.490;5.448;2023-11-21T00:57:44;101166.19;;;7.69;100.00
81802;BME280;71199;52.490;5.448;2023-11-21T01:00:10;101169.63;;;7.71;100.00
81802;BME280;71199;52.490;5.448;2023-11-21T01:02:40;101173.53;;;7.69;100.00
81802;BME280;71199;52.490;5.448;2023-11-21T01:05:05;101176.69;;;7.74;100.00
81802;BME280;71199;52.490;5.448;2023-11-21T01:07:32;101181.44;;;7.72;100.00
81802;BME280;71199;52.490;5.448;2023-11-21T01:09:58;101176.53;;;7.75;100.00
81802;BME280;71199;52.490;5.448;2023-11-21T01:12:23;101177.25;;;7.77;100.00
81802;BME280;71199;52.490;5.448;2023-11-21T01:14:50;101174.53;;;7.77;100.00
81802;BME280;71199;52.490;5.448;2023-11-21T01:17:16;101175.94;;;7.81;100.00
81802;BME280;71199;52.490;5.448;2023-11-21T01:19:42;101182.13;;;7.83;100.00
81802;BME280;71199;52.490;5.448;2023-11-21T01:22:07;101194.09;;;7.82;100.00
81802;BME280;71199;52.490;5.448;2023-11-21T01:24:33;101191.38;;;7.82;100.00
81802;BME280;71199;52.490;5.448;2023-11-21T01:26:59;101192.94;;;7.85;100.00
81802;BME280;71199;52.490;5.448;2023-11-21T01:29:24;101198.41;;;7.85;100.00
81802;BME280;71199;52.490;5.448;2023-11-21T01:31:49;101202.31;;;7.82;100.00
81802;BME280;71199;52.490;5.448;2023-11-21T01:34:15;101207.63;;;7.84;100.00
81802;BME280;71199;52.490;5.448;2023-11-21T01:36:40;101210.06;;;7.87;100.00
81802;BME280;71199;52.490;5.448;2023-11-21T01:39:05;101216.53;;;7.86;100.00
81802;BME280;71199;52.490;5.448;2023-11-21T01:41:36;101215.81;;;7.84;100.00
81802;BME280;71199;52.490;5.448;2023-11-21T01:44:02;101217.84;;;7.82;100.00
81802;BME280;71199;52.490;5.448;2023-11-21T01:46:27;101219.88;;;7.80;100.00
81802;BME280;71199;52.490;5.448;2023-11-21T01:48:54;101224.63;;;7.78;100.00
81802;BME280;71199;52.490;5.448;2023-11-21T01:51:19;101225.34;;;7.80;100.00
81802;BME280;71199;52.490;5.448;2023-11-21T01:53:45;101220.59;;;7.82;100.00
81802;BME280;71199;52.490;5.448;2023-11-21T01:56:12;101223.75;;;7.87;100.00
81802;BME280;71199;52.490;5.448;2023-11-21T01:58:39;101229.06;;;7.88;100.00
81802;BME280;71199;52.490;5.448;2023-11-21T02:01:04;101222.59;;;7.90;100.00
81802;BME280;71199;52.490;5.448;2023-11-21T02:03:30;101228.19;;;7.88;100.00
81802;BME280;71199;52.490;5.448;2023-11-21T02:05:56;101233.41;;;7.91;100.00
81802;BME280;71199;52.490;5.448;2023-11-21T02:08:21;101234.25;;;7.92;100.00
81802;BME280;71199;52.490;5.448;2023-11-21T02:10:47;101242.31;;;7.93;100.00
81802;BME280;71199;52.490;5.448;2023-11-21T02:13:13;101242.16;;;7.95;100.00
81802;BME280;71199;52.490;5.448;2023-11-21T02:15:38;101245.78;;;7.95;100.00
81802;BME280;71199;52.490;5.448;2023-11-21T02:18:04;101243.03;;;7.95;100.00
81802;BME280;71199;52.490;5.448;2023-11-21T02:20:31;101245.47;;;7.98;100.00
81802;BME280;71199;52.490;5.448;2023-11-21T02:23:00;101240.25;;;8.05;100.00
81802;BME280;71199;52.490;5.448;2023-11-21T02:25:31;101235.81;;;8.04;100.00
81802;BME280;71199;52.490;5.448;2023-11-21T02:28:01;101247.63;;;8.04;100.00
81802;BME280;71199;52.490;5.448;2023-11-21T02:30:27;101249.38;;;8.05;100.00
81802;BME280;71199;52.490;5.448;2023-11-21T02:32:57;101250.63;;;8.11;100.00
81802;BME280;71199;52.490;5.448;2023-11-21T02:35:22;101251.78;;;8.08;100.00
81802;BME280;71199;52.490;5.448;2023-11-21T02:37:49;101257.41;;;8.07;100.00
81802;BME280;71199;52.490;5.448;2023-11-21T02:40:14;101259.16;;;8.08;100.00
81802;BME280;71199;52.490;5.448;2023-11-21T02:42:46;101252.81;;;8.07;100.00
81802;BME280;71199;52.490;5.448;2023-11-21T02:45:13;101258.13;;;8.09;100.00
81802;BME280;71199;52.490;5.448;2023-11-21T02:47:39;101256.97;;;8.12;100.00
81802;BME280;71199;52.490;5.448;2023-11-21T02:50:05;101263.19;;;8.14;100.00
81802;BME280;71199;52.490;5.448;2023-11-21T02:52:32;101260.44;;;8.14;100.00
81802;BME280;71199;52.490;5.448;2023-11-21T02:54:58;101266.19;;;8.20;100.00
81802;BME280;71199;52.490;5.448;2023-11-21T02:57:23;101276.28;;;8.20;100.00
81802;BME280;71199;52.490;5.448;2023-11-21T02:59:49;101269.63;;;8.22;100.00
81802;BME280;71199;52.490;5.448;2023-11-21T03:02:15;101258.09;;;8.19;100.00
81802;BME280;71199;52.490;5.448;2023-11-21T03:04:41;101257.25;;;8.18;100.00
81802;BME280;71199;52.490;5.448;2023-11-21T03:07:08;101258.09;;;8.19;100.00
81802;BME280;71199;52.490;5.448;2023-11-21T03:09:33;101256.53;;;8.16;100.00
81802;BME280;71199;52.490;5.448;2023-11-21T03:11:59;101262.28;;;8.13;100.00
81802;BME280;71199;52.490;5.448;2023-11-21T03:14:24;101265.75;;;8.15;100.00
81802;BME280;71199;52.490;5.448;2023-11-21T03:16:50;101261.88;;;8.18;100.00
81802;BME280;71199;52.490;5.448;2023-11-21T03:19:15;101252.63;;;8.19;100.00
81802;BME280;71199;52.490;5.448;2023-11-21T03:21:40;101254.38;;;8.20;100.00
81802;BME280;71199;52.490;5.448;2023-11-21T03:24:06;101255.22;;;8.20;100.00
81802;BME280;71199;52.490;5.448;2023-11-21T03:26:32;101259.53;;;8.23;100.00
81802;BME280;71199;52.490;5.448;2023-11-21T03:28:58;101265.72;;;8.25;100.00
81802;BME280;71199;52.490;5.448;2023-11-21T03:31:23;101265.59;;;8.26;100.00
81802;BME280;71199;52.490;5.448;2023-11-21T03:33:48;101264.41;;;8.29;100.00
81802;BME280;71199;52.490;5.448;2023-11-21T03:36:14;101260.97;;;8.27;100.00
81802;BME280;71199;52.490;5.448;2023-11-21T03:38:43;101270.03;;;8.27;100.00
81802;BME280;71199;52.490;5.448;2023-11-21T03:41:08;101278.09;;;8.29;100.00
81802;BME280;71199;52.490;5.448;2023-11-21T03:43:36;101281.13;;;8.36;100.00
81802;BME280;71199;52.490;5.448;2023-11-21T03:46:01;101272.34;;;8.42;100.00
81802;BME280;71199;52.490;5.448;2023-11-21T03:48:27;101266.09;;;8.40;100.00
81802;BME280;71199;52.490;5.448;2023-11-21T03:50:52;101276.22;;;8.39;100.00
81802;BME280;71199;52.490;5.448;2023-11-21T03:53:17;101280.97;;;8.37;100.00
81802;BME280;71199;52.490;5.448;2023-11-21T03:55:43;101281.69;;;8.39;100.00
81802;BME280;71199;52.490;5.448;2023-11-21T03:58:08;101282.44;;;8.41;100.00
81802;BME280;71199;52.490;5.448;2023-11-21T04:00:33;101288.91;;;8.40;100.00
81802;BME280;71199;52.490;5.448;2023-11-21T04:02:59;101289.78;;;8.41;100.00
81802;BME280;71199;52.490;5.448;2023-11-21T04:05:24;101290.38;;;8.44;100.00
81802;BME280;71199;52.490;5.448;2023-11-21T04:07:50;101299.56;;;8.43;100.00
81802;BME280;71199;52.490;5.448;2023-11-21T04:10:17;101298.41;;;8.46;100.00
81802;BME280;71199;52.490;5.448;2023-11-21T04:12:42;101299.28;;;8.46;100.00
81802;BME280;71199;52.490;5.448;2023-11-21T04:15:08;101307.78;;;8.53;100.00
81802;BME280;71199;52.490;5.448;2023-11-21T04:17:34;101305.59;;;8.57;100.00
81802;BME280;71199;52.490;5.448;2023-11-21T04:20:00;101313.38;;;8.61;100.00
81802;BME280;71199;52.490;5.448;2023-11-21T04:22:25;101320.28;;;8.65;100.00
81802;BME280;71199;52.490;5.448;2023-11-21T04:24:51;101318.13;;;8.59;100.00
81802;BME280;71199;52.490;5.448;2023-11-21T04:27:16;101322.75;;;8.59;100.00
81802;BME280;71199;52.490;5.448;2023-11-21T04:29:43;101321.34;;;8.55;100.00
81802;BME280;71199;52.490;5.448;2023-11-21T04:32:09;101319.31;;;8.57;100.00
81802;BME280;71199;52.490;5.448;2023-11-21T04:34:34;101336.03;;;8.54;100.00
81802;BME280;71199;52.490;5.448;2023-11-21T04:37:00;101335.03;;;8.55;100.00
81802;BME280;71199;52.490;5.448;2023-11-21T04:39:26;101329.94;;;8.60;100.00
81802;BME280;71199;52.490;5.448;2023-11-21T04:41:51;101327.78;;;8.63;100.00
81802;BME280;71199;52.490;5.448;2023-11-21T04:44:17;101328.03;;;8.70;100.00
81802;BME280;71199;52.490;5.448;2023-11-21T04:46:42;101333.25;;;8.73;100.00
81802;BME280;71199;52.490;5.448;2023-11-21T04:49:07;101339.84;;;8.80;100.00
81802;BME280;71199;52.490;5.448;2023-11-21T04:51:33;101341.56;;;8.81;100.00
81802;BME280;71199;52.490;5.448;2023-11-21T04:53:58;101347.34;;;8.78;100.00
81802;BME280;71199;52.490;5.448;2023-11-21T04:56:24;101342.72;;;8.79;100.00
81802;BME280;71199;52.490;5.448;2023-11-21T04:58:49;101349.47;;;8.84;100.00
81802;BME280;71199;52.490;5.448;2023-11-21T05:01:15;101355.41;;;8.80;100.00
81802;BME280;71199;52.490;5.448;2023-11-21T05:03:41;101353.53;;;8.80;100.00
81802;BME280;71199;52.490;5.448;2023-11-21T05:06:09;101360.75;;;8.81;100.00
81802;BME280;71199;52.490;5.448;2023-11-21T05:08:34;101358.16;;;8.80;100.00
81802;BME280;71199;52.490;5.448;2023-11-21T05:11:00;101368.66;;;8.84;100.00
81802;BME280;71199;52.490;5.448;2023-11-21T05:13:25;101359.72;;;8.82;100.00
81802;BME280;71199;52.490;5.448;2023-11-21T05:15:56;101365.47;;;8.89;100.00
81802;BME280;71199;52.490;5.448;2023-11-21T05:18:25;101359.59;;;8.84;100.00
81802;BME280;71199;52.490;5.448;2023-11-21T05:20:55;101363.03;;;8.86;100.00
81802;BME280;71199;52.490;5.448;2023-11-21T05:23:20;101367.66;;;8.85;100.00
81802;BME280;71199;52.490;5.448;2023-11-21T05:25:45;101371.28;;;8.86;100.00
81802;BME280;71199;52.490;5.448;2023-11-21T05:28:11;101369.69;;;8.83;100.00
81802;BME280;71199;52.490;5.448;2023-11-21T05:30:37;101374.47;;;8.81;100.00
81802;BME280;71199;52.490;5.448;2023-11-21T05:33:04;101383.22;;;8.85;100.00
81802;BME280;71199;52.490;5.448;2023-11-21T05:35:29;101376.59;;;8.87;100.00
81802;BME280;71199;52.490;5.448;2023-11-21T05:37:55;101394.75;;;8.88;100.00
81802;BME280;71199;52.490;5.448;2023-11-21T05:40:20;101392.88;;;8.89;100.00
81802;BME280;71199;52.490;5.448;2023-11-21T05:42:47;101395.78;;;8.87;100.00
81802;BME280;71199;52.490;5.448;2023-11-21T05:45:13;101388.56;;;8.86;100.00
81802;BME280;71199;52.490;5.448;2023-11-21T05:47:46;101406.59;;;8.89;100.00
81802;BME280;71199;52.490;5.448;2023-11-21T05:50:13;101402.13;;;8.88;100.00
81802;BME280;71199;52.490;5.448;2023-11-21T05:52:43;101408.47;;;8.88;100.00
81802;BME280;71199;52.490;5.448;2023-11-21T05:55:09;101415.69;;;8.90;100.00
81802;BME280;71199;52.490;5.448;2023-11-21T05:57:36;101418.44;;;8.90;100.00
81802;BME280;71199;52.490;5.448;2023-11-21T06:00:05;101420.28;;;8.89;100.00
81802;BME280;71199;52.490;5.448;2023-11-21T06:02:43;101424.47;;;8.93;100.00
81802;BME280;71199;52.490;5.448;2023-11-21T06:05:09;101417.84;;;8.96;100.00
81802;BME280;71199;52.490;5.448;2023-11-21T06:07:35;101428.34;;;9.00;100.00
81802;BME280;71199;52.490;5.448;2023-11-21T06:10:02;101438.28;;;9.01;100.00
81802;BME280;71199;52.490;5.448;2023-11-21T06:12:31;101439.00;;;9.03;100.00
81802;BME280;71199;52.490;5.448;2023-11-21T06:14:56;101452.56;;;9.05;100.00
81802;BME280;71199;52.490;5.448;2023-11-21T06:17:22;101437.28;;;9.02;100.00
81802;BME280;71199;52.490;5.448;2023-11-21T06:19:49;101449.38;;;9.10;100.00
81802;BME280;71199;52.490;5.448;2023-11-21T06:22:15;101450.53;;;9.07;100.00
81802;BME280;71199;52.490;5.448;2023-11-21T06:24:40;101447.22;;;9.03;100.00
81802;BME280;71199;52.490;5.448;2023-11-21T06:27:07;101454.72;;;9.01;100.00
81802;BME280;71199;52.490;5.448;2023-11-21T06:29:33;101465.28;;;8.96;100.00
81802;BME280;71199;52.490;5.448;2023-11-21T06:31:58;101457.94;;;8.97;100.00
81802;BME280;71199;52.490;5.448;2023-11-21T06:34:24;101465.28;;;8.96;100.00
81802;BME280;71199;52.490;5.448;2023-11-21T06:36:49;101475.81;;;9.01;100.00
81802;BME280;71199;52.490;5.448;2023-11-21T06:39:15;101476.13;;;8.98;100.00
81802;BME280;71199;52.490;5.448;2023-11-21T06:41:42;101481.88;;;9.04;100.00
81802;BME280;71199;52.490;5.448;2023-11-21T06:44:08;101489.50;;;9.01;100.00
81802;BME280;71199;52.490;5.448;2023-11-21T06:46:34;101491.53;;;9.08;100.00
81802;BME280;71199;52.490;5.448;2023-11-21T06:48:59;101495.44;;;9.06;100.00
81802;BME280;71199;52.490;5.448;2023-11-21T06:51:25;101498.72;;;9.10;100.00
81802;BME280;71199;52.490;5.448;2023-11-21T06:53:50;101504.78;;;9.13;100.00
81802;BME280;71199;52.490;5.448;2023-11-21T06:56:18;101500.00;;;9.15;100.00
81802;BME280;71199;52.490;5.448;2023-11-21T06:58:46;101504.78;;;9.13;100.00
81802;BME280;71199;52.490;5.448;2023-11-21T07:01:13;101522.81;;;9.16;100.00
81802;BME280;71199;52.490;5.448;2023-11-21T07:03:39;101529.59;;;9.21;100.00
81802;BME280;71199;52.490;5.448;2023-11-21T07:06:05;101541.41;;;9.22;100.00
81802;BME280;71199;52.490;5.448;2023-11-21T07:08:30;101535.47;;;9.26;100.00
81802;BME280;71199;52.490;5.448;2023-11-21T07:10:55;101554.41;;;9.30;100.00
81802;BME280;71199;52.490;5.448;2023-11-21T07:13:21;101546.16;;;9.30;100.00
81802;BME280;71199;52.490;5.448;2023-11-21T07:15:47;101552.66;;;9.28;100.00
81802;BME280;71199;52.490;5.448;2023-11-21T07:18:13;101566.09;;;9.32;100.00
81802;BME280;71199;52.490;5.448;2023-11-21T07:20:38;101560.75;;;9.30;100.00
81802;BME280;71199;52.490;5.448;2023-11-21T07:23:04;101564.66;;;9.27;100.00
81802;BME280;71199;52.490;5.448;2023-11-21T07:25:29;101566.94;;;9.22;100.00
81802;BME280;71199;52.490;5.448;2023-11-21T07:27:54;101568.28;;;9.18;100.00
81802;BME280;71199;52.490;5.448;2023-11-21T07:30:20;101564.06;;;9.24;100.00
81802;BME280;71199;52.490;5.448;2023-11-21T07:32:47;101579.09;;;9.20;100.00
81802;BME280;71199;52.490;5.448;2023-11-21T07:35:13;101595.00;;;9.16;100.00
81802;BME280;71199;52.490;5.448;2023-11-21T07:37:38;101594.69;;;9.19;100.00
81802;BME280;71199;52.490;5.448;2023-11-21T07:40:04;101604.34;;;9.14;100.00
81802;BME280;71199;52.490;5.448;2023-11-21T07:42:30;101600.47;;;9.16;100.00
81802;BME280;71199;52.490;5.448;2023-11-21T07:44:55;101611.28;;;9.18;100.00
81802;BME280;71199;52.490;5.448;2023-11-21T07:47:21;101615.59;;;9.20;100.00
81802;BME280;71199;52.490;5.448;2023-11-21T07:49:47;101615.91;;;9.17;100.00
81802;BME280;71199;52.490;5.448;2023-11-21T07:52:13;101625.16;;;9.16;100.00
81802;BME280;71199;52.490;5.448;2023-11-21T07:54:41;101637.13;;;9.15;100.00
81802;BME280;71199;52.490;5.448;2023-11-21T07:57:07;101636.69;;;9.20;100.00
81802;BME280;71199;52.490;5.448;2023-11-21T07:59:32;101640.28;;;9.20;100.00
81802;BME280;71199;52.490;5.448;2023-11-21T08:01:58;101633.94;;;9.30;100.00
81802;BME280;71199;52.490;5.448;2023-11-21T08:04:23;101632.63;;;9.34;100.00
81802;BME280;71199;52.490;5.448;2023-11-21T08:06:48;101642.16;;;9.30;100.00
81802;BME280;71199;52.490;5.448;2023-11-21T08:09:14;101651.53;;;9.37;100.00
81802;BME280;71199;52.490;5.448;2023-11-21T08:11:40;101658.03;;;9.45;100.00
81802;BME280;71199;52.490;5.448;2023-11-21T08:14:06;101658.19;;;9.44;100.00
81802;BME280;71199;52.490;5.448;2023-11-21T08:16:31;101673.47;;;9.46;100.00
81802;BME280;71199;52.490;5.448;2023-11-21T08:18:57;101686.59;;;9.43;100.00
81802;BME280;71199;52.490;5.448;2023-11-21T08:21:22;101687.03;;;9.38;100.00
81802;BME280;71199;52.490;5.448;2023-11-21T08:23:52;101692.66;;;9.37;100.00
81802;BME280;71199;52.490;5.448;2023-11-21T08:26:21;101708.84;;;9.30;100.00
81802;BME280;71199;52.490;5.448;2023-11-21T08:28:47;101696.16;;;9.19;100.00
81802;BME280;71199;52.490;5.448;2023-11-21T08:31:13;101701.22;;;9.14;100.00
81802;BME280;71199;52.490;5.448;2023-11-21T08:33:38;101704.22;;;9.11;100.00
81802;BME280;71199;52.490;5.448;2023-11-21T08:36:08;101714.47;;;9.09;100.00
81802;BME280;71199;52.490;5.448;2023-11-21T08:38:34;101732.66;;;9.10;100.00
81802;BME280;71199;52.490;5.448;2023-11-21T08:41:04;101729.19;;;9.08;100.00
81802;BME280;71199;52.490;5.448;2023-11-21T08:43:33;101736.25;;;9.01;100.00
81802;BME280;71199;52.490;5.448;2023-11-21T08:45:59;101738.72;;;9.04;100.00
81802;BME280;71199;52.490;5.448;2023-11-21T08:48:24;101755.00;;;8.96;100.00
81802;BME280;71199;52.490;5.448;2023-11-21T08:50:50;101754.41;;;8.92;100.00
81802;BME280;71199;52.490;5.448;2023-11-21T08:53:16;101749.53;;;8.96;100.00
81802;BME280;71199;52.490;5.448;2023-11-21T08:55:42;101756.28;;;8.92;100.00
81802;BME280;71199;52.490;5.448;2023-11-21T08:58:09;101759.91;;;8.92;100.00
81802;BME280;71199;52.490;5.448;2023-11-21T09:00:34;101757.03;;;8.94;100.00
81802;BME280;71199;52.490;5.448;2023-11-21T09:03:01;101759.91;;;8.92;100.00
81802;BME280;71199;52.490;5.448;2023-11-21T09:05:27;101760.03;;;8.91;100.00
81802;BME280;71199;52.490;5.448;2023-11-21T09:07:53;101767.66;;;8.87;100.00
81802;BME280;71199;52.490;5.448;2023-11-21T09:10:18;101776.03;;;8.85;100.00
81802;BME280;71199;52.490;5.448;2023-11-21T09:12:44;101775.16;;;8.85;100.00
81802;BME280;71199;52.490;5.448;2023-11-21T09:15:10;101781.09;;;8.90;100.00
81802;BME280;71199;52.490;5.448;2023-11-21T09:17:36;101783.72;;;8.92;100.00
81802;BME280;71199;52.490;5.448;2023-11-21T09:20:03;101782.81;;;8.91;100.00
81802;BME280;71199;52.490;5.448;2023-11-21T09:22:31;101777.88;;;8.85;100.00
81802;BME280;71199;52.490;5.448;2023-11-21T09:24:57;101795.78;;;8.89;100.00
81802;BME280;71199;52.490;5.448;2023-11-21T09:27:23;101798.53;;;8.89;100.00
81802;BME280;71199;52.490;5.448;2023-11-21T09:29:49;101803.44;;;8.85;100.00
81802;BME280;71199;52.490;5.448;2023-11-21T09:32:14;101796.94;;;8.86;100.00
81802;BME280;71199;52.490;5.448;2023-11-21T09:34:43;101810.38;;;8.90;100.00
81802;BME280;71199;52.490;5.448;2023-11-21T09:37:09;101806.19;;;8.95;100.00
81802;BME280;71199;52.490;5.448;2023-11-21T09:39:34;101809.84;;;8.96;100.00
81802;BME280;71199;52.490;5.448;2023-11-21T09:42:12;101817.75;;;8.99;100.00
81802;BME280;71199;52.490;5.448;2023-11-21T09:45:08;101836.69;;;9.02;100.00
81802;BME280;71199;52.490;5.448;2023-11-21T09:47:38;101842.31;;;9.00;100.00
81802;BME280;71199;52.490;5.448;2023-11-21T09:50:05;101841.44;;;9.00;100.00
81802;BME280;71199;52.490;5.448;2023-11-21T09:53:20;101844.56;;;8.95;100.00
81802;BME280;71199;52.490;5.448;2023-11-21T09:55:27;101847.06;;;8.98;100.00
81802;BME280;71199;52.490;5.448;2023-11-21T09:57:57;101857.44;;;8.95;100.00
81802;BME280;71199;52.490;5.448;2023-11-21T10:00:23;101867.06;;;8.89;100.00
81802;BME280;71199;52.490;5.448;2023-11-21T10:02:49;101862.72;;;8.86;100.00
81802;BME280;71199;52.490;5.448;2023-11-21T10:05:15;101858.84;;;8.89;100.00
81802;BME280;71199;52.490;5.448;2023-11-21T10:07:42;101883.66;;;8.87;100.00
81802;BME280;71199;52.490;5.448;2023-11-21T10:10:10;101887.53;;;8.85;100.00
81802;BME280;71199;52.490;5.448;2023-11-21T10:12:36;101876.00;;;8.81;100.00
81802;BME280;71199;52.490;5.448;2023-11-21T10:15:07;101881.91;;;8.86;100.00
81802;BME280;71199;52.490;5.448;2023-11-21T10:17:35;101884.53;;;8.88;100.00
81802;BME280;71199;52.490;5.448;2023-11-21T10:20:08;101884.97;;;8.93;100.00
81802;BME280;71199;52.490;5.448;2023-11-21T10:22:39;101894.25;;;9.02;100.00
81802;BME280;71199;52.490;5.448;2023-11-21T10:25:07;101911.09;;;8.97;100.00
81802;BME280;71199;52.490;5.448;2023-11-21T10:27:34;101910.56;;;9.03;100.00
81802;BME280;71199;52.490;5.448;2023-11-21T10:30:03;101914.31;;;9.02;100.00
81802;BME280;71199;52.490;5.448;2023-11-21T10:32:29;101914.06;;;9.15;100.00
81802;BME280;71199;52.490;5.448;2023-11-21T10:34:59;101916.41;;;9.20;100.00
81802;BME280;71199;52.490;5.448;2023-11-21T10:37:34;101926.56;;;9.29;100.00
81802;BME280;71199;52.490;5.448;2023-11-21T10:40:00;101930.59;;;9.25;100.00
81802;BME280;71199;52.490;5.448;2023-11-21T10:42:25;101920.19;;;9.28;100.00
81802;BME280;71199;52.490;5.448;2023-11-21T10:44:53;101920.91;;;9.31;100.00
81802;BME280;71199;52.490;5.448;2023-11-21T10:47:19;101920.19;;;9.28;100.00
81802;BME280;71199;52.490;5.448;2023-11-21T10:49:47;101923.47;;;9.22;100.00
81802;BME280;71199;52.490;5.448;2023-11-21T10:52:13;101926.38;;;9.31;100.00
81802;BME280;71199;52.490;5.448;2023-11-21T10:54:43;101934.41;;;9.43;100.00
81802;BME280;71199;52.490;5.448;2023-11-21T10:57:09;101934.41;;;9.43;100.00
81802;BME280;71199;52.490;5.448;2023-11-21T10:59:36;101938.22;;;9.21;100.00
81802;BME280;71199;52.490;5.448;2023-11-21T11:02:08;101932.72;;;9.21;100.00
81802;BME280;71199;52.490;5.448;2023-11-21T11:04:38;101934.00;;;9.17;100.00
81802;BME280;71199;52.490;5.448;2023-11-21T11:07:05;101939.31;;;9.09;100.00
81802;BME280;71199;52.490;5.448;2023-11-21T11:09:34;101941.44;;;9.05;100.00
81802;BME280;71199;52.490;5.448;2023-11-21T11:12:02;101955.31;;;9.04;100.00
81802;BME280;71199;52.490;5.448;2023-11-21T11:14:28;101953.97;;;8.98;100.00
81802;BME280;71199;52.490;5.448;2023-11-21T11:16:54;101963.72;;;9.12;100.00
81802;BME280;71199;52.490;5.448;2023-11-21T11:19:20;101967.19;;;9.14;100.00
81802;BME280;71199;52.490;5.448;2023-11-21T11:24:42;101967.75;;;9.08;100.00
81802;BME280;71199;52.490;5.448;2023-11-21T11:33:26;101978.03;;;8.95;100.00
81802;BME280;71199;52.490;5.448;2023-11-21T11:36:03;101966.63;;;8.90;100.00
81802;BME280;71199;52.490;5.448;2023-11-21T11:38:33;101978.88;;;8.85;100.00
81802;BME280;71199;52.490;5.448;2023-11-21T11:41:02;101985.44;;;8.73;100.00
81802;BME280;71199;52.490;5.448;2023-11-21T11:43:29;101988.28;;;8.72;100.00
81802;BME280;71199;52.490;5.448;2023-11-21T11:45:57;101996.09;;;8.76;100.00
81802;BME280;71199;52.490;5.448;2023-11-21T11:48:24;101994.97;;;8.79;100.00
81802;BME280;71199;52.490;5.448;2023-11-21T11:51:03;101989.16;;;8.72;100.00
81802;BME280;71199;52.490;5.448;2023-11-21T11:53:36;101999.50;;;8.68;100.00
81802;BME280;71199;52.490;5.448;2023-11-21T11:58:54;102009.41;;;8.81;100.00
81802;BME280;71199;52.490;5.448;2023-11-21T12:01:21;102006.13;;;8.87;100.00
81802;BME280;71199;52.490;5.448;2023-11-21T12:06:42;102008.63;;;8.69;100.00
81802;BME280;71199;52.490;5.448;2023-11-21T12:09:28;102008.41;;;8.61;100.00
81802;BME280;71199;52.490;5.448;2023-11-21T12:11:55;102010.41;;;8.59;100.00
81802;BME280;71199;52.490;5.448;2023-11-21T12:14:22;102010.75;;;8.65;100.00
81802;BME280;71199;52.490;5.448;2023-11-21T12:16:47;102008.47;;;8.71;100.00
81802;BME280;71199;52.490;5.448;2023-11-21T12:19:13;102014.75;;;8.61;100.00
81802;BME280;71199;52.490;5.448;2023-11-21T12:21:39;102013.88;;;8.61;100.00
81802;BME280;71199;52.490;5.448;2023-11-21T12:24:07;102016.84;;;8.69;100.00
81802;BME280;71199;52.490;5.448;2023-11-21T12:26:34;102011.59;;;8.66;100.00
81802;BME280;71199;52.490;5.448;2023-11-21T12:29:01;102010.34;;;8.70;100.00
81802;BME280;71199;52.490;5.448;2023-11-21T12:31:29;102008.81;;;8.77;100.00
81802;BME280;71199;52.490;5.448;2023-11-21T12:33:54;102014.03;;;8.80;100.00
81802;BME280;71199;52.490;5.448;2023-11-21T12:36:21;102027.00;;;8.78;100.00
81802;BME280;71199;52.490;5.448;2023-11-21T12:38:47;102023.06;;;8.71;100.00
81802;BME280;71199;52.490;5.448;2023-11-21T12:41:12;102029.06;;;8.65;100.00
81802;BME280;71199;52.490;5.448;2023-11-21T12:43:38;102036.53;;;8.63;100.00
81802;BME280;71199;52.490;5.448;2023-11-21T12:46:06;102055.72;;;8.63;100.00
81802;BME280;71199;52.490;5.448;2023-11-21T12:48:32;102049.22;;;8.64;100.00
81802;BME280;71199;52.490;5.448;2023-11-21T12:50:57;102061.78;;;8.66;100.00
81802;BME280;71199;52.490;5.448;2023-11-21T12:53:25;102063.47;;;8.58;100.00
81802;BME280;71199;52.490;5.448;2023-11-21T12:55:51;102075.03;;;8.61;100.00
81802;BME280;71199;52.490;5.448;2023-11-21T12:58:17;102081.38;;;8.62;100.00
81802;BME280;71199;52.490;5.448;2023-11-21T13:00:48;102086.00;;;8.61;100.00
81802;BME280;71199;52.490;5.448;2023-11-21T13:03:16;102094.34;;;8.60;100.00